Time;durP1;ratioP1;P1;durP2;ratioP2;P2;SDS_P1;SDS_P2;PMS_P1;PMS_P2;Temp;Humidity;BMP_temperature;BMP_pressure;BME280_temperature;BME280_humidity;BME280_pressure;Samples;Min_cycle;Max_cycle;Signal;HPM_P1;HPM_P2
2022/03/09 00:00:28;;;;;;;42.30;21.35;;;;;;;2.93;77.17;99836.00;3033276;29;20084;-73
2022/03/09 00:01:59;;;;;;;40.95;20.27;;;;;;;2.85;77.23;99812.09;3033863;29;20052;-73
2022/03/09 00:03:31;;;;;;;38.92;21.27;;;;;;;2.61;77.06;99786.72;3034959;29;20138;-74
2022/03/09 00:05:03;;;;;;;39.33;20.77;;;;;;;2.67;77.12;99791.78;3036170;29;20056;-73
2022/03/09 00:06:35;;;;;;;39.67;20.33;;;;;;;2.67;77.11;99786.63;3034846;29;20198;-73
2022/03/09 00:08:07;;;;;;;36.72;20.38;;;;;;;2.81;77.07;99820.72;3034006;29;20281;-73
2022/03/09 00:09:38;;;;;;;35.13;19.73;;;;;;;2.67;77.04;99791.78;3036369;29;20052;-74
2022/03/09 00:11:10;;;;;;;34.00;19.35;;;;;;;2.65;76.90;99786.63;3037581;29;20447;-74
2022/03/09 00:12:42;;;;;;;39.22;20.40;;;;;;;2.86;76.62;99824.06;3038155;29;20506;-73
2022/03/09 00:14:14;;;;;;;33.30;19.63;;;;;;;2.83;76.62;99829.25;3036887;29;20052;-72
2022/03/09 00:15:46;;;;;;;36.17;20.57;;;;;;;2.43;76.76;99759.53;3038768;29;20575;-73
2022/03/09 00:17:18;;;;;;;39.00;21.52;;;;;;;2.78;76.64;99818.19;3034299;29;20052;-73
2022/03/09 00:18:50;;;;;;;39.50;21.80;;;;;;;2.51;76.55;99778.25;3037143;29;20104;-72
2022/03/09 00:20:22;;;;;;;37.97;20.20;;;;;;;2.76;76.62;99822.50;3035828;29;20048;-73
2022/03/09 00:21:54;;;;;;;36.40;20.23;;;;;;;2.74;76.51;99816.53;3037592;29;20049;-73
2022/03/09 00:23:25;;;;;;;34.45;20.55;;;;;;;2.71;76.51;99821.69;3035954;29;20125;-73
2022/03/09 00:24:56;;;;;;;40.85;20.70;;;;;;;2.58;76.54;99797.03;3037123;29;20057;-73
2022/03/09 00:26:28;;;;;;;36.90;20.00;;;;;;;2.68;76.40;99819.19;3038589;29;20135;-73
2022/03/09 00:28:00;;;;;;;37.75;19.90;;;;;;;2.21;76.40;99743.50;3036942;29;20183;-73
2022/03/09 00:29:33;;;;;;;38.88;20.73;;;;;;;2.41;76.32;99777.53;3037775;29;20048;-73
2022/03/09 00:31:05;;;;;;;35.60;19.98;;;;;;;2.40;76.34;99783.53;3037105;29;20072;-73
2022/03/09 00:32:40;;;;;;;37.05;20.00;;;;;;;2.49;76.31;99798.84;3037871;29;20064;-74
2022/03/09 00:34:12;;;;;;;38.60;20.10;;;;;;;2.36;76.45;99775.88;3037055;29;20087;-73
2022/03/09 00:35:44;;;;;;;38.45;20.08;;;;;;;2.46;76.41;99798.03;3036666;29;20052;-71
2022/03/09 00:37:16;;;;;;;40.05;21.45;;;;;;;2.56;76.51;99811.63;3038278;29;20083;-70
2022/03/09 00:38:48;;;;;;;37.63;20.85;;;;;;;2.41;76.46;99787.78;3035078;29;20056;-70
2022/03/09 00:40:20;;;;;;;39.70;21.67;;;;;;;2.53;76.44;99811.66;3037067;29;20049;-70
2022/03/09 00:41:52;;;;;;;39.38;20.92;;;;;;;2.41;76.38;99786.97;3035371;29;20052;-73
2022/03/09 00:43:24;;;;;;;41.25;22.10;;;;;;;2.51;76.42;99806.53;3038303;29;20491;-73
2022/03/09 00:44:57;;;;;;;40.13;22.38;;;;;;;2.35;76.24;99780.16;3036529;29;20067;-73
2022/03/09 00:46:29;;;;;;;38.67;20.63;;;;;;;2.45;76.49;99799.72;3034665;29;20075;-72
2022/03/09 00:48:01;;;;;;;38.72;21.30;;;;;;;2.46;76.36;99801.44;3038367;29;20064;-73
2022/03/09 00:49:33;;;;;;;40.42;22.15;;;;;;;2.31;76.41;99772.50;3036439;29;20052;-72
2022/03/09 00:51:05;;;;;;;41.05;23.27;;;;;;;2.46;76.42;99798.88;3032812;29;20550;-72
2022/03/09 00:52:37;;;;;;;40.92;22.38;;;;;;;2.34;76.41;99783.63;3037126;29;20203;-72
2022/03/09 00:54:09;;;;;;;39.60;21.98;;;;;;;2.38;76.35;99789.56;3037036;29;20045;-72
2022/03/09 00:55:41;;;;;;;40.20;21.90;;;;;;;2.29;76.37;99772.53;3035053;29;20057;-72
2022/03/09 00:57:13;;;;;;;38.88;21.67;;;;;;;2.23;76.21;99762.34;3036352;29;20049;-72
2022/03/09 00:58:46;;;;;;;38.25;21.45;;;;;;;2.04;76.38;99726.59;3036174;29;20049;-72
2022/03/09 01:00:19;;;;;;;42.83;22.73;;;;;;;2.27;76.30;99772.53;3036775;29;20126;-73
2022/03/09 01:01:50;;;;;;;40.28;22.65;;;;;;;2.28;76.34;99774.25;3034673;29;20441;-72
2022/03/09 01:03:22;;;;;;;39.50;21.90;;;;;;;2.37;76.18;99791.28;3031816;29;20123;-71
2022/03/09 01:04:54;;;;;;;40.90;21.98;;;;;;;2.37;76.29;99787.88;3024181;29;20207;-71
2022/03/09 01:06:26;;;;;;;38.38;21.15;;;;;;;2.34;76.31;99785.31;3028495;29;20526;-73
2022/03/09 01:07:58;;;;;;;40.95;22.38;;;;;;;2.23;76.13;99759.75;3024530;29;20145;-71
2022/03/09 01:09:30;;;;;;;39.97;21.67;;;;;;;2.38;76.14;99779.28;3029312;29;20060;-71
2022/03/09 01:11:02;;;;;;;42.13;23.65;;;;;;;2.37;76.09;99778.44;3026800;29;20817;-71
2022/03/09 01:12:35;;;;;;;40.33;21.33;;;;;;;2.37;76.24;99778.44;3027199;29;20053;-71
2022/03/09 01:14:07;;;;;;;38.70;21.33;;;;;;;2.35;76.18;99775.03;3026411;29;20056;-71
2022/03/09 01:15:40;;;;;;;44.08;22.88;;;;;;;2.37;76.28;99775.03;3026824;29;20396;-70
2022/03/09 01:17:13;;;;;;;40.55;21.48;;;;;;;2.30;76.10;99763.94;3024367;29;20079;-71
2022/03/09 01:18:45;;;;;;;43.27;21.67;;;;;;;2.36;76.08;99769.00;3027813;29;20055;-73
2022/03/09 01:20:18;;;;;;;44.70;23.23;;;;;;;2.24;76.11;99756.31;3023872;29;20380;-73
2022/03/09 01:21:50;;;;;;;39.90;22.73;;;;;;;2.33;76.02;99769.03;3022882;29;20610;-72
2022/03/09 01:23:23;;;;;;;41.88;23.08;;;;;;;2.35;75.98;99771.63;3026665;29;20071;-72
2022/03/09 01:24:55;;;;;;;43.58;22.73;;;;;;;2.32;75.92;99763.94;3025178;29;20052;-72
2022/03/09 01:26:28;;;;;;;43.63;22.50;;;;;;;2.31;75.86;99768.22;3027505;29;20159;-71
2022/03/09 01:28:00;;;;;;;44.78;23.27;;;;;;;2.31;75.80;99765.66;3026933;29;20164;-72
2022/03/09 01:29:32;;;;;;;42.80;23.83;;;;;;;2.32;75.85;99763.94;3027577;29;20462;-73
2022/03/09 01:31:06;;;;;;;45.05;23.38;;;;;;;2.25;75.81;99760.59;3025111;29;20049;-72
2022/03/09 01:32:38;;;;;;;42.72;22.92;;;;;;;2.30;75.60;99770.81;3027655;29;20063;-72
2022/03/09 01:34:10;;;;;;;41.47;23.40;;;;;;;2.19;75.72;99747.78;3022627;29;21628;-72
2022/03/09 01:35:42;;;;;;;43.83;22.73;;;;;;;2.26;75.69;99763.13;3027474;29;20112;-73
2022/03/09 01:37:15;;;;;;;41.35;23.30;;;;;;;2.19;75.64;99752.94;3027245;29;20057;-72
2022/03/09 01:38:47;;;;;;;40.45;22.58;;;;;;;2.24;75.67;99766.59;3027827;29;20143;-71
2022/03/09 01:40:20;;;;;;;39.85;22.98;;;;;;;2.25;75.55;99758.03;3024931;29;20056;-71
2022/03/09 01:41:52;;;;;;;42.67;24.35;;;;;;;2.11;75.54;99736.78;3023595;29;20080;-71
2022/03/09 01:43:24;;;;;;;40.75;23.27;;;;;;;2.25;75.71;99763.16;3028472;29;20059;-71
2022/03/09 01:45:05;;;;;;;45.03;24.42;;;;;;;1.96;75.56;99712.97;3025232;29;20109;-71
2022/03/09 01:46:39;;;;;;;44.30;23.23;;;;;;;2.09;75.42;99733.38;3026455;29;20499;-71
2022/03/09 01:48:11;;;;;;;45.25;23.48;;;;;;;2.24;75.64;99761.44;3026486;29;20180;-71
2022/03/09 01:49:43;;;;;;;44.63;23.75;;;;;;;2.23;75.39;99763.16;3027771;29;20143;-71
2022/03/09 01:51:16;;;;;;;43.15;23.45;;;;;;;2.24;75.30;99761.44;3025355;29;20438;-72
2022/03/09 01:52:49;;;;;;;43.78;24.70;;;;;;;2.23;75.44;99759.75;3028133;29;20070;-72
2022/03/09 01:54:20;;;;;;;49.17;25.63;;;;;;;2.17;75.23;99759.84;3024386;29;20055;-74
2022/03/09 01:55:53;;;;;;;47.83;24.80;;;;;;;2.10;75.37;99747.91;3025041;29;20088;-72
2022/03/09 01:57:25;;;;;;;44.80;23.75;;;;;;;2.18;75.31;99761.53;3026592;29;20682;-72
2022/03/09 01:58:57;;;;;;;45.88;24.10;;;;;;;2.05;75.31;99750.56;3025077;29;20582;-73
2022/03/09 02:00:30;;;;;;;43.97;24.23;;;;;;;2.19;75.15;99770.91;3026293;29;20485;-73
2022/03/09 02:02:04;;;;;;;48.72;25.08;;;;;;;2.15;75.18;99764.13;3026596;29;20834;-73
2022/03/09 02:03:36;;;;;;;43.88;24.38;;;;;;;2.18;75.22;99771.81;3027134;29;20060;-73
2022/03/09 02:05:09;;;;;;;45.72;24.80;;;;;;;2.20;75.25;99772.66;3025980;29;20561;-73
2022/03/09 02:06:43;;;;;;;46.75;24.58;;;;;;;2.19;75.29;99770.91;3027950;29;20056;-73
2022/03/09 02:10:09;;;;;;;47.33;24.58;;;;;;;2.15;75.28;99774.41;3025993;29;20064;-73
2022/03/09 02:11:41;;;;;;;47.10;24.45;;;;;;;2.15;75.23;99771.84;3025012;29;20056;-72
2022/03/09 02:13:14;;;;;;;47.25;24.83;;;;;;;2.15;75.34;99770.13;3027137;29;20510;-73
2022/03/09 02:14:49;;;;;;;47.10;24.92;;;;;;;2.16;75.35;99763.25;3024778;29;20056;-72
2022/03/09 02:16:21;;;;;;;46.58;24.02;;;;;;;2.17;75.29;99770.13;3025454;29;20682;-73
2022/03/09 02:17:54;;;;;;;46.83;24.85;;;;;;;2.12;75.23;99759.03;3028180;29;20479;-73
2022/03/09 02:19:25;;;;;;;;;;;;;;;1.99;75.40;99777.16;3028299;29;20048;-73
2022/03/09 02:21:02;;;;;;;44.47;22.98;;;;;;;1.92;75.32;99752.38;3027391;29;19927;-72
2022/03/09 02:22:39;;;;;;;49.95;24.95;;;;;;;2.03;75.39;99763.41;3027143;29;20441;-72
2022/03/09 02:24:10;;;;;;;48.65;26.35;;;;;;;1.71;75.24;99720.09;3027675;29;20056;-72
2022/03/09 02:25:44;;;;;;;50.00;25.05;;;;;;;2.13;75.17;99778.69;3027621;29;20665;-73
2022/03/09 02:27:16;;;;;;;48.35;26.40;;;;;;;2.14;75.07;99783.84;3026827;29;20064;-73
2022/03/09 02:28:48;;;;;;;49.47;25.27;;;;;;;2.13;74.84;99781.28;3025123;29;21379;-72
2022/03/09 02:30:21;;;;;;;48.38;24.63;;;;;;;1.91;74.97;99748.13;3026735;29;20143;-73
2022/03/09 02:31:56;;;;;;;47.55;24.70;;;;;;;1.93;74.95;99760.97;3025312;29;20056;-73
2022/03/09 02:33:45;;;;;;;50.42;26.30;;;;;;;1.75;74.68;99723.50;3025429;29;20064;-72
2022/03/09 02:35:49;;;;;;;44.22;24.27;;;;;;;1.87;74.83;99754.16;3025768;29;20159;-74
2022/03/09 02:37:21;;;;;;;44.22;23.88;;;;;;;2.03;75.13;99777.97;3023576;29;20052;-73
2022/03/09 02:38:55;;;;;;;47.13;24.83;;;;;;;2.08;74.91;99786.47;3027576;29;20060;-72
2022/03/09 02:40:27;;;;;;;48.15;25.73;;;;;;;1.63;75.08;99700.50;3026562;29;20056;-72
2022/03/09 02:41:59;;;;;;;47.17;24.77;;;;;;;1.99;74.85;99760.91;3022538;29;20060;-72
2022/03/09 02:43:32;;;;;;;49.33;26.02;;;;;;;2.03;75.05;99765.13;3026270;29;20056;-73
2022/03/09 02:45:05;;;;;;;47.88;25.77;;;;;;;2.12;74.92;99775.28;3024375;29;20075;-72
2022/03/09 02:46:37;;;;;;;56.78;27.15;;;;;;;2.09;74.96;99777.03;3023351;29;20169;-71
2022/03/09 02:48:09;;;;;;;53.67;26.05;;;;;;;2.12;75.11;99783.00;3025193;29;20546;-70
2022/03/09 02:49:41;;;;;;;51.88;27.58;;;;;;;2.13;74.98;99777.00;3025955;29;20052;-70
2022/03/09 02:51:13;;;;;;;51.75;27.05;;;;;;;2.15;74.98;99779.53;3024226;29;20048;-70
2022/03/09 02:52:46;;;;;;;52.03;26.85;;;;;;;2.13;75.04;99771.00;3023981;29;20949;-71
2022/03/09 02:54:19;;;;;;;49.85;25.95;;;;;;;2.15;74.88;99774.41;3026795;29;20874;-71
2022/03/09 02:55:51;;;;;;;53.83;28.25;;;;;;;2.07;75.00;99768.50;3026962;29;20309;-72
2022/03/09 02:57:23;;;;;;;52.15;28.38;;;;;;;1.93;74.94;99731.00;3025108;29;20062;-71
2022/03/09 02:58:55;;;;;;;50.42;26.50;;;;;;;2.04;74.93;99756.53;3026392;29;20052;-71
2022/03/09 03:00:27;;;;;;;53.65;26.40;;;;;;;2.03;74.98;99757.41;3024789;29;20127;-73
2022/03/09 03:02:00;;;;;;;49.17;26.13;;;;;;;2.10;75.00;99766.78;3026766;29;20393;-71
2022/03/09 03:03:32;;;;;;;48.42;26.75;;;;;;;1.74;74.97;99716.63;3026635;29;20053;-72
2022/03/09 03:05:05;;;;;;;52.25;27.35;;;;;;;2.10;74.84;99779.63;3027091;29;20582;-72
2022/03/09 03:06:38;;;;;;;53.95;27.70;;;;;;;2.14;74.95;99778.69;3025687;29;20127;-72
2022/03/09 03:08:10;;;;;;;51.60;26.92;;;;;;;1.95;74.87;99739.53;3025556;29;20458;-72
2022/03/09 03:09:43;;;;;;;51.97;27.30;;;;;;;2.05;74.79;99758.25;3026450;29;20061;-72
2022/03/09 03:11:15;;;;;;;;;;;;;;;1.98;74.96;99775.47;3026140;29;20075;-72
2022/03/09 03:12:47;;;;;;;50.92;25.85;;;;;;;1.93;75.16;99761.81;3026494;29;19927;-71
2022/03/09 03:14:19;;;;;;;50.53;26.15;;;;;;;2.12;75.16;99785.56;3026438;29;20053;-71
2022/03/09 03:15:52;;;;;;;51.63;26.57;;;;;;;2.02;74.96;99764.28;3026188;29;20059;-71
2022/03/09 03:17:24;;;;;;;52.42;27.33;;;;;;;2.13;74.92;99778.69;3022831;29;20092;-71
2022/03/09 03:18:56;;;;;;;54.83;27.73;;;;;;;2.17;74.91;99785.53;3026253;29;20537;-70
2022/03/09 03:20:29;;;;;;;55.63;28.00;;;;;;;2.13;74.80;99778.69;3023584;29;20527;-71
2022/03/09 03:22:01;;;;;;;55.45;28.65;;;;;;;2.05;74.87;99765.97;3025969;29;20328;-71
2022/03/09 03:23:35;;;;;;;51.05;27.15;;;;;;;2.09;74.71;99766.78;3025782;29;20078;-71
2022/03/09 03:25:09;;;;;;;50.67;26.23;;;;;;;2.17;74.75;99781.22;3024276;29;20079;-71
2022/03/09 03:26:41;;;;;;;54.17;28.08;;;;;;;2.03;74.68;99754.84;3026346;29;20578;-71
2022/03/09 03:28:14;;;;;;;52.45;27.48;;;;;;;2.19;74.61;99783.75;3025734;29;20052;-71
2022/03/09 03:29:46;;;;;;;53.40;28.20;;;;;;;2.21;74.66;99782.03;3026702;29;20065;-71
2022/03/09 03:31:22;;;;;;;55.63;26.63;;;;;;;2.20;74.65;99781.19;3026979;29;20475;-71
2022/03/09 03:32:55;;;;;;;54.78;26.98;;;;;;;2.23;74.59;99780.31;3026355;29;20148;-71
2022/03/09 03:34:27;;;;;;;50.97;26.65;;;;;;;2.23;74.61;99785.44;3024702;29;20056;-72
2022/03/09 03:35:59;;;;;;;51.65;26.98;;;;;;;2.23;74.58;99776.03;3026623;29;20080;-71
2022/03/09 03:37:31;;;;;;;55.25;28.35;;;;;;;2.24;74.63;99782.84;3025252;29;20093;-71
2022/03/09 03:39:04;;;;;;;49.80;25.95;;;;;;;2.18;74.65;99770.06;3025864;29;20091;-72
2022/03/09 03:40:38;;;;;;;51.47;27.33;;;;;;;2.10;74.43;99761.63;3026583;29;20067;-71
2022/03/09 03:42:11;;;;;;;52.95;27.60;;;;;;;2.24;74.53;99777.72;3024729;29;20088;-72
2022/03/09 03:43:46;;;;;;;50.83;27.92;;;;;;;2.23;74.64;99783.72;3024010;29;20156;-71
2022/03/09 03:45:19;;;;;;;49.72;27.17;;;;;;;2.25;74.42;99788.88;3025415;29;20116;-73
2022/03/09 03:46:53;;;;;;;50.60;26.63;;;;;;;2.07;74.51;99753.09;3021295;29;20057;-73
2022/03/09 03:48:25;;;;;;;54.00;29.15;;;;;;;2.05;74.46;99750.56;3025945;29;20879;-73
2022/03/09 03:49:57;;;;;;;51.55;26.77;;;;;;;2.25;74.45;99781.16;3025552;29;20054;-72
2022/03/09 03:51:29;;;;;;;54.78;28.48;;;;;;;2.16;74.44;99770.97;3022539;29;20068;-72
2022/03/09 03:53:02;;;;;;;51.30;25.98;;;;;;;2.27;74.33;99782.81;3025562;29;20712;-72
2022/03/09 03:54:34;;;;;;;50.00;26.52;;;;;;;2.28;74.37;99779.41;3026503;29;20554;-72
2022/03/09 03:56:08;;;;;;;49.03;26.75;;;;;;;2.30;74.27;99778.53;3026022;29;20063;-72
2022/03/09 03:57:40;;;;;;;47.75;25.75;;;;;;;2.23;74.33;99768.31;3026509;29;20095;-72
2022/03/09 03:59:20;;;;;;;49.25;26.77;;;;;;;2.31;74.20;99778.50;3025306;29;20053;-73
2022/03/09 04:00:58;;;;;;;51.70;26.73;;;;;;;2.06;74.31;99734.25;3026350;29;20084;-73
2022/03/09 04:02:33;;;;;;;48.75;26.83;;;;;;;2.32;74.28;99771.66;3025502;29;20076;-73
2022/03/09 04:04:05;;;;;;;51.20;27.05;;;;;;;2.17;74.02;99752.13;3020374;29;20171;-73
2022/03/09 04:05:38;;;;;;;52.50;28.02;;;;;;;2.09;73.86;99735.94;3026485;29;20351;-74
2022/03/09 04:07:10;;;;;;;52.80;27.08;;;;;;;2.32;74.21;99769.94;3025996;29;20589;-74
2022/03/09 04:08:47;;;;;;;49.42;26.17;;;;;;;2.32;74.02;99769.94;3023510;29;20064;-73
2022/03/09 04:10:21;;;;;;;56.70;27.92;;;;;;;1.99;73.90;99723.22;3024559;29;20674;-73
2022/03/09 04:11:57;;;;;;;52.53;27.48;;;;;;;2.33;73.96;99775.91;3026709;29;20056;-73
2022/03/09 04:13:32;;;;;;;53.08;28.25;;;;;;;2.32;73.90;99774.22;3025261;29;20052;-73
2022/03/09 04:15:05;;;;;;;51.45;26.98;;;;;;;2.31;73.95;99781.09;3024620;29;20427;-74
2022/03/09 04:16:37;;;;;;;52.50;27.02;;;;;;;2.08;74.02;99745.38;3025292;29;20618;-71
2022/03/09 04:18:09;;;;;;;49.22;26.42;;;;;;;2.28;74.10;99776.81;3026473;29;20064;-71
2022/03/09 04:19:42;;;;;;;51.75;27.20;;;;;;;2.12;73.94;99743.63;3024903;29;20053;-71
2022/03/09 04:21:14;;;;;;;48.40;26.58;;;;;;;2.28;74.16;99778.56;3020208;29;20151;-71
2022/03/09 04:22:46;;;;;;;52.80;27.55;;;;;;;2.30;73.94;99783.66;3024971;29;20507;-70
2022/03/09 04:24:18;;;;;;;51.10;26.90;;;;;;;2.27;74.12;99772.53;3026339;29;20195;-71
2022/03/09 04:25:50;;;;;;;53.72;28.83;;;;;;;2.30;74.12;99778.53;3024762;29;20120;-70
2022/03/09 04:27:23;;;;;;;53.40;27.35;;;;;;;2.30;73.91;99776.78;3026524;29;20143;-71
2022/03/09 04:28:55;;;;;;;;;;;;;;;2.12;74.15;99777.00;3024623;29;20080;-71
2022/03/09 04:30:27;;;;;;;54.20;27.60;;;;;;;2.04;74.34;99759.09;3024248;29;19928;-71
2022/03/09 04:31:59;;;;;;;55.53;27.70;;;;;;;2.17;74.11;99765.81;3025327;29;20458;-71
2022/03/09 04:33:32;;;;;;;51.53;27.83;;;;;;;2.03;74.14;99742.84;3023626;29;20498;-71
2022/03/09 04:35:05;;;;;;;55.55;29.30;;;;;;;2.13;73.98;99760.72;3027342;29;20060;-70
2022/03/09 04:36:37;;;;;;;52.50;29.08;;;;;;;2.25;73.92;99781.16;3023700;29;20746;-70
2022/03/09 04:38:09;;;;;;;57.80;28.95;;;;;;;2.21;73.88;99772.59;3021519;29;20056;-72
2022/03/09 04:39:40;;;;;;;58.40;30.48;;;;;;;2.15;73.70;99759.00;3026286;29;20068;-71
2022/03/09 04:41:15;;;;;;;53.15;28.42;;;;;;;2.28;73.71;99779.41;3026112;29;20052;-73
2022/03/09 04:42:49;;;;;;;56.30;29.42;;;;;;;2.30;73.73;99784.50;3024164;29;20052;-71
2022/03/09 04:44:21;;;;;;;50.70;27.63;;;;;;;2.28;73.82;99789.66;3025954;29;20061;-72
2022/03/09 04:45:53;;;;;;;54.03;28.90;;;;;;;2.18;73.71;99772.66;3026654;29;20067;-70
2022/03/09 04:47:26;;;;;;;54.85;29.08;;;;;;;2.30;73.77;99783.66;3023901;29;20512;-71
2022/03/09 04:48:58;;;;;;;54.25;29.65;;;;;;;2.30;73.79;99781.94;3024721;29;20052;-71
2022/03/09 04:50:30;;;;;;;57.42;29.85;;;;;;;2.13;73.69;99753.88;3025158;29;20066;-72
2022/03/09 04:52:05;;;;;;;59.80;29.90;;;;;;;2.00;73.60;99737.75;3026965;29;20144;-72
2022/03/09 04:53:37;;;;;;;60.33;32.08;;;;;;;2.05;73.91;99746.25;3024920;29;20499;-73
2022/03/09 04:55:10;;;;;;;61.92;31.98;;;;;;;2.31;73.94;99787.91;3023539;29;20059;-71
2022/03/09 04:56:42;;;;;;;58.70;30.27;;;;;;;2.30;73.88;99786.22;3025834;29;20290;-71
2022/03/09 04:58:15;;;;;;;60.63;32.42;;;;;;;2.30;73.83;99787.06;3026880;29;20056;-70
2022/03/09 04:59:47;;;;;;;;;;;;;;;2.12;74.01;99792.41;3028057;29;20095;-70
2022/03/09 05:01:19;;;;;;;55.22;29.70;;;;;;;2.12;74.32;99782.16;3025738;29;20241;-70
2022/03/09 05:02:51;;;;;;;58.97;30.05;;;;;;;2.09;74.20;99769.34;3026166;29;20052;-69
2022/03/09 05:04:23;;;;;;;57.50;30.23;;;;;;;2.26;74.05;99790.56;3025968;29;20053;-70
2022/03/09 05:05:56;;;;;;;58.85;30.17;;;;;;;2.28;74.05;99793.97;3028126;29;20100;-70
2022/03/09 05:07:27;;;;;;;57.22;29.33;;;;;;;2.29;73.88;99795.66;3027484;29;20060;-70
2022/03/09 05:09:00;;;;;;;54.72;30.60;;;;;;;2.30;73.73;99797.34;3027798;29;20056;-70
2022/03/09 05:10:33;;;;;;;56.72;29.45;;;;;;;2.11;73.86;99775.31;3028075;29;20071;-70
2022/03/09 05:12:14;;;;;;;53.40;29.05;;;;;;;2.17;73.61;99775.25;3027859;29;20080;-71
2022/03/09 05:13:47;;;;;;;54.45;29.10;;;;;;;2.12;73.79;99772.72;3034133;29;20067;-73
2022/03/09 05:15:19;;;;;;;52.50;28.55;;;;;;;2.00;73.81;99763.44;3036856;29;20110;-74
2022/03/09 05:16:51;;;;;;;57.08;29.42;;;;;;;2.27;73.90;99799.94;3033425;29;20048;-72
2022/03/09 05:18:23;;;;;;;53.38;28.52;;;;;;;2.08;73.85;99771.06;3037932;29;20116;-72
2022/03/09 05:19:54;;;;;;;51.92;29.40;;;;;;;2.18;74.05;99792.34;3036833;29;20113;-73
2022/03/09 05:21:26;;;;;;;52.78;28.38;;;;;;;1.78;73.75;99723.47;3033913;29;20052;-73
2022/03/09 05:22:58;;;;;;;58.55;29.38;;;;;;;2.27;73.89;99805.94;3042312;29;20057;-72
2022/03/09 05:24:30;;;;;;;57.92;30.15;;;;;;;2.25;73.96;99804.28;3037024;29;20053;-72
2022/03/09 05:26:02;;;;;;;49.92;28.35;;;;;;;2.30;73.93;99819.63;3022084;29;20504;-72
2022/03/09 05:27:35;;;;;;;58.58;30.13;;;;;;;2.31;74.03;99816.19;3028505;29;20585;-73
2022/03/09 05:29:08;;;;;;;54.70;27.98;;;;;;;2.22;73.85;99802.59;3029606;29;20793;-72
2022/03/09 05:30:40;;;;;;;;;;;;;;;2.14;74.03;99826.66;3024869;29;20212;-72
2022/03/09 05:32:12;;;;;;;54.95;28.00;;;;;;;2.15;74.15;99821.50;3026712;29;19974;-71
2022/03/09 05:33:44;;;;;;;52.63;28.67;;;;;;;2.22;73.85;99819.72;3028173;29;20060;-72
2022/03/09 05:35:15;;;;;;;52.05;28.30;;;;;;;1.98;73.68;99785.72;3027804;29;20135;-71
2022/03/09 05:36:47;;;;;;;57.65;29.85;;;;;;;2.19;73.80;99807.75;3026996;29;20099;-71
2022/03/09 05:38:19;;;;;;;58.75;30.45;;;;;;;2.31;73.76;99832.47;3026342;29;20063;-72
2022/03/09 05:39:51;;;;;;;53.13;29.30;;;;;;;2.15;73.61;99810.38;3029223;29;20619;-72
2022/03/09 05:41:22;;;;;;;55.08;29.00;;;;;;;2.25;73.83;99830.81;3027291;29;20586;-72
2022/03/09 05:42:54;;;;;;;56.47;30.80;;;;;;;2.30;73.64;99838.47;3024514;29;20172;-72
2022/03/09 05:44:28;;;;;;;56.03;29.52;;;;;;;2.27;73.64;99835.94;3028633;29;20568;-72
2022/03/09 05:45:59;;;;;;;;;;;;;;;2.11;73.85;99840.38;3028022;29;20052;-73
2022/03/09 05:47:32;;;;;;;50.85;27.73;;;;;;;2.17;73.90;99842.03;3022608;29;19927;-72
2022/03/09 05:49:06;;;;;;;55.75;28.83;;;;;;;2.20;74.02;99849.72;3026442;29;20053;-72
2022/03/09 05:50:39;;;;;;;54.92;29.13;;;;;;;2.15;73.80;99839.47;3026567;29;20061;-70
2022/03/09 05:52:10;;;;;;;56.63;29.63;;;;;;;2.17;73.64;99831.78;3025411;29;20072;-72
2022/03/09 05:53:43;;;;;;;54.10;29.48;;;;;;;2.21;73.74;99847.13;3025535;29;20463;-71
2022/03/09 05:55:15;;;;;;;55.53;29.35;;;;;;;2.20;73.59;99855.72;3026972;29;20390;-71
2022/03/09 05:56:48;;;;;;;59.45;30.38;;;;;;;2.15;73.69;99843.78;3028352;29;20115;-70
2022/03/09 05:58:20;;;;;;;56.72;29.35;;;;;;;2.31;73.66;99865.88;3026716;29;20139;-71
2022/03/09 05:59:54;;;;;;;58.05;30.13;;;;;;;2.23;73.63;99845.41;3024626;29;20056;-72
2022/03/09 06:01:27;;;;;;;60.30;29.55;;;;;;;2.32;73.76;99857.28;3023003;29;20052;-72
2022/03/09 06:02:59;;;;;;;57.20;29.92;;;;;;;2.27;73.68;99853.91;3026383;29;20202;-71
2022/03/09 06:04:31;;;;;;;57.03;30.05;;;;;;;2.37;73.71;99873.53;3022949;29;20171;-71
2022/03/09 06:06:04;;;;;;;56.33;30.33;;;;;;;2.37;73.78;99872.69;3027832;29;20053;-71
2022/03/09 06:07:37;;;;;;;61.15;31.35;;;;;;;2.39;73.73;99869.19;3027069;29;20542;-71
2022/03/09 06:09:09;;;;;;;56.33;30.17;;;;;;;2.18;73.85;99836.03;3025422;29;20156;-71
2022/03/09 06:10:41;;;;;;;59.17;31.10;;;;;;;2.39;73.97;99869.19;3027346;29;20293;-71
2022/03/09 06:12:15;;;;;;;59.20;29.83;;;;;;;2.21;73.88;99838.56;3028089;29;20060;-71
2022/03/09 06:13:47;;;;;;;56.40;30.45;;;;;;;2.41;74.03;99871.78;3026867;29;20875;-70
2022/03/09 06:15:21;;;;;;;56.70;30.23;;;;;;;2.46;73.85;99880.28;3027302;29;20063;-70
2022/03/09 06:16:53;;;;;;;60.00;30.77;;;;;;;2.43;73.99;99870.88;3024720;29;20340;-71
2022/03/09 06:18:25;;;;;;;55.88;30.88;;;;;;;2.28;73.96;99837.66;3025246;29;20068;-71
2022/03/09 06:19:57;;;;;;;59.70;30.90;;;;;;;2.50;73.84;99882.78;3026337;29;20067;-71
2022/03/09 06:21:29;;;;;;;56.63;29.67;;;;;;;2.26;73.72;99842.78;3024089;29;20122;-70
2022/03/09 06:23:01;;;;;;;54.88;28.92;;;;;;;2.53;73.85;99884.47;3022240;29;20063;-72
2022/03/09 06:24:34;;;;;;;57.28;29.15;;;;;;;2.49;73.49;99881.09;3023976;29;20060;-70
2022/03/09 06:26:06;;;;;;;62.78;30.05;;;;;;;2.26;73.50;99839.38;3026515;29;20052;-72
2022/03/09 06:27:42;;;;;;;58.83;30.65;;;;;;;2.55;73.48;99881.91;3027326;29;20060;-72
2022/03/09 06:29:14;;;;;;;59.55;30.55;;;;;;;2.26;73.35;99835.09;3027384;29;20108;-70
2022/03/09 06:30:48;;;;;;;55.28;29.63;;;;;;;2.34;73.45;99847.84;3027900;29;20067;-72
2022/03/09 06:32:20;;;;;;;51.60;27.40;;;;;;;2.54;73.51;99885.31;3026980;29;20058;-72
2022/03/09 06:33:53;;;;;;;57.60;29.55;;;;;;;2.54;73.55;99891.31;3026922;29;20460;-72
2022/03/09 06:35:25;;;;;;;58.63;28.93;;;;;;;2.57;73.55;99886.13;3021449;29;20155;-73
2022/03/09 06:36:58;;;;;;;51.97;27.02;;;;;;;2.38;73.31;99858.94;3022434;29;20143;-71
2022/03/09 06:38:30;;;;;;;56.20;29.08;;;;;;;2.59;73.50;99891.28;3025424;29;20139;-71
2022/03/09 06:40:03;;;;;;;57.47;29.67;;;;;;;2.34;73.15;99840.16;3026608;29;20507;-72
2022/03/09 06:41:36;;;;;;;54.83;27.50;;;;;;;2.61;73.34;99886.97;3026700;29;20089;-71
2022/03/09 06:43:08;;;;;;;52.90;28.75;;;;;;;2.61;73.27;99887.81;3026073;29;20052;-71
2022/03/09 06:44:40;;;;;;;54.13;27.50;;;;;;;2.59;73.30;99881.00;3027985;29;20592;-72
2022/03/09 06:46:15;;;;;;;56.00;27.83;;;;;;;2.67;73.26;99892.06;3026323;29;20092;-73
2022/03/09 06:47:47;;;;;;;52.65;28.83;;;;;;;2.67;73.30;99892.91;3020609;29;20088;-73
2022/03/09 06:49:19;;;;;;;53.40;27.67;;;;;;;2.59;73.34;99870.72;3026203;29;20064;-71
2022/03/09 06:50:51;;;;;;;53.80;28.38;;;;;;;2.59;73.23;99865.56;3025349;29;20545;-72
2022/03/09 06:52:24;;;;;;;55.33;28.65;;;;;;;2.59;73.20;99857.84;3027477;29;20064;-72
2022/03/09 06:53:56;;;;;;;52.72;27.95;;;;;;;2.82;73.01;99896.16;3026238;29;20072;-72
2022/03/09 06:55:29;;;;;;;55.80;29.27;;;;;;;2.85;73.01;99896.97;3027910;29;20052;-72
2022/03/09 06:57:01;;;;;;;55.90;29.23;;;;;;;2.87;73.22;99897.81;3025764;29;20495;-71
2022/03/09 06:58:33;;;;;;;52.47;29.00;;;;;;;2.91;73.01;99898.63;3027750;29;20060;-72
2022/03/09 07:00:07;;;;;;;53.65;28.80;;;;;;;2.74;72.81;99857.66;3025111;29;20088;-72
2022/03/09 07:01:41;;;;;;;53.40;28.52;;;;;;;2.91;72.83;99878.88;3023696;29;20176;-72
2022/03/09 07:03:12;;;;;;;;;;;;;;;2.87;73.02;99894.34;3026161;29;20864;-72
2022/03/09 07:04:44;;;;;;;46.70;25.60;;;;;;;2.86;73.02;99875.50;3026414;29;20004;-71
2022/03/09 07:06:17;;;;;;;53.22;27.95;;;;;;;2.80;72.65;99846.44;3027185;29;20167;-69
2022/03/09 07:07:49;;;;;;;51.05;26.73;;;;;;;3.12;72.49;99894.91;3027388;29;20202;-71
2022/03/09 07:09:21;;;;;;;53.50;27.85;;;;;;;3.09;72.48;99880.38;3022772;29;20453;-70
2022/03/09 07:10:54;;;;;;;49.35;27.90;;;;;;;3.07;72.31;99874.38;3026649;29;20052;-70
2022/03/09 07:12:27;;;;;;;57.63;30.90;;;;;;;3.08;72.10;99870.09;3027460;29;20541;-72
2022/03/09 07:13:59;;;;;;;57.40;30.45;;;;;;;3.27;72.23;99897.28;3023981;29;20064;-71